»·PEaware :: SWA6033 KORD-KLAS

SWA6033 :: KORD-KLAS

FLIGHT INFORMATION

Flight Status: Arrived
Operator:
Southwest Airlines
More flights by this operator :: More flights under this callsign
Pilot: Daniel W. (24238)
Aircraft: BOEING 737-700
(B737)
More flights by this aircraft type
Origin: KORD Chicago-O'Hare Intl
United States
Destination: KLAS Harry Reid Intl
United States
More flights between these airports :: More routes between these airports
Route: OLINN OREOS OBENE OGALE LNK/N0449F360 MCK DANDD HBU J146 DVC TYEGR CHOWW1
File this flight plan on PilotEdge
Remarks: PBN / A1D1O1S2T1 NAV / RNVD1E1A1 RNP10 DAT / 1FANSE2PDC REG / N717SA EET / KZMP0044 KZDV0126 KZLA0306 CODE / A9979F
Altitude:
(Current/Filed)
34,000ft
Speed:
(Current/Filed)
442kts
Departed: 08-Jan-22 01:33 PM
Arrived: 08-Jan-22 05:12 PM
Distance/Time
Traveled:
1312nm/3:38
Distance/Time
To Go:
Arrived

Flight Plot

Page will automatically refresh every two minutes.

Flight plan parsing failed; only flown route is shown


Map Options




Map Legend


Flown Route
Filed Route
Departure Airport
Arrival Airport
Navaid (VOR, NDB)
Fix

Horizontal Profiles

Position Reports

Time Latitude Longitude Heading Altitude Ground
Speed
08-Jan-22 13:31 41.974979 -88.220700 265 11913ft 249kts
08-Jan-22 13:32 41.969469 -88.315374 258 14752ft 260kts
08-Jan-22 13:33 41.958252 -88.411762 259 14979ft 260kts
08-Jan-22 13:34 41.946257 -88.519010 259 16078ft 325kts
08-Jan-22 13:35 41.932200 -88.641541 259 19017ft 336kts
08-Jan-22 13:36 41.917613 -88.768039 259 21590ft 350kts
08-Jan-22 13:37 41.909965 -88.901150 265 23855ft 364kts
08-Jan-22 13:38 41.905849 -89.039236 264 25780ft 376kts
08-Jan-22 13:39 41.900966 -89.181305 264 27437ft 387kts
08-Jan-22 13:40 41.889442 -89.326123 260 29221ft 388kts
08-Jan-22 13:41 41.875235 -89.468640 260 31131ft 383kts
08-Jan-22 13:42 41.861089 -89.609635 260 32842ft 379kts
08-Jan-22 13:43 41.847069 -89.748678 260 34019ft 378kts
08-Jan-22 13:45 41.832485 -89.888243 260 34030ft 376kts
08-Jan-22 13:46 41.817680 -90.027311 260 34022ft 377kts
08-Jan-22 13:47 41.802726 -90.165967 260 34014ft 377kts
08-Jan-22 13:48 41.788554 -90.305375 260 34010ft 377kts
08-Jan-22 13:49 41.773769 -90.444532 260 34009ft 378kts
08-Jan-22 13:50 41.758652 -90.583711 260 34007ft 378kts
08-Jan-22 13:51 41.743315 -90.722970 260 34007ft 378kts
08-Jan-22 13:52 41.727777 -90.862375 259 34003ft 378kts
08-Jan-22 13:53 41.712135 -91.001123 259 33999ft 377kts
08-Jan-22 13:54 41.696326 -91.139802 259 33997ft 377kts
08-Jan-22 13:55 41.680365 -91.278290 259 33981ft 376kts
08-Jan-22 13:56 41.664268 -91.416451 259 33984ft 375kts
08-Jan-22 13:57 41.648075 -91.553953 259 33989ft 374kts
08-Jan-22 13:58 41.631740 -91.691215 259 33983ft 373kts
08-Jan-22 13:59 41.615295 -91.827941 259 33975ft 373kts
08-Jan-22 14:00 41.598682 -91.964678 259 33946ft 373kts
08-Jan-22 14:01 41.581935 -92.101114 259 33934ft 372kts
08-Jan-22 14:02 41.564978 -92.237866 258 33933ft 373kts
08-Jan-22 14:03 41.547863 -92.374513 258 33932ft 373kts
08-Jan-22 14:04 41.530585 -92.511105 258 33927ft 374kts
08-Jan-22 14:05 41.513078 -92.648145 258 33924ft 374kts
08-Jan-22 14:05 41.498379 -92.762181 258 33918ft 375kts
08-Jan-22 14:07 41.477591 -92.921905 258 33909ft 375kts
08-Jan-22 14:08 41.459571 -93.059204 258 33906ft 375kts
08-Jan-22 14:09 41.441778 -93.195932 258 33898ft 374kts
08-Jan-22 14:09 41.426419 -93.309240 257 33898ft 374kts
08-Jan-22 14:10 41.407795 -93.445853 257 33888ft 373kts
08-Jan-22 14:11 41.389533 -93.581795 258 33891ft 373kts
08-Jan-22 14:13 41.368029 -93.740330 257 33895ft 372kts
08-Jan-22 14:13 41.352534 -93.853221 257 33892ft 372kts
08-Jan-22 14:14 41.334349 -93.988584 258 33888ft 372kts
08-Jan-22 14:15 41.316209 -94.123876 257 33884ft 371kts
08-Jan-22 14:16 41.297619 -94.258953 257 33879ft 371kts
08-Jan-22 14:17 41.278793 -94.393999 257 33875ft 372kts
08-Jan-22 14:18 41.259721 -94.529474 257 33874ft 372kts
08-Jan-22 14:19 41.240528 -94.664572 257 33874ft 372kts
08-Jan-22 14:20 41.221161 -94.799699 257 33871ft 372kts
08-Jan-22 14:21 41.201701 -94.934302 257 33872ft 371kts
08-Jan-22 14:22 41.182065 -95.068954 256 33876ft 371kts
08-Jan-22 14:23 41.162297 -95.203357 256 33878ft 370kts
08-Jan-22 14:24 41.142399 -95.337505 256 33877ft 370kts
08-Jan-22 14:25 41.122336 -95.471633 256 33877ft 370kts
08-Jan-22 14:26 41.102177 -95.605290 256 33877ft 369kts
08-Jan-22 14:27 41.081916 -95.738526 256 33885ft 369kts
08-Jan-22 14:28 41.061447 -95.872031 256 33895ft 369kts
08-Jan-22 14:29 41.040892 -96.005017 256 33896ft 369kts
08-Jan-22 14:30 41.020179 -96.137969 256 33894ft 367kts
08-Jan-22 14:31 40.999417 -96.270168 256 33891ft 368kts
08-Jan-22 14:32 40.978814 -96.402894 256 33887ft 368kts
08-Jan-22 14:33 40.957541 -96.535403 255 33884ft 368kts
08-Jan-22 14:34 40.936055 -96.667773 255 33880ft 367kts
08-Jan-22 14:35 40.914411 -96.799596 255 33879ft 367kts
08-Jan-22 14:36 40.891700 -96.931148 254 33880ft 367kts
08-Jan-22 14:37 40.868904 -97.062400 254 33878ft 366kts
08-Jan-22 14:38 40.846105 -97.193286 255 33876ft 367kts
08-Jan-22 14:39 40.823948 -97.324863 255 33873ft 366kts
08-Jan-22 14:40 40.801141 -97.456456 254 33871ft 366kts
08-Jan-22 14:41 40.778565 -97.585081 254 33871ft 367kts
08-Jan-22 14:42 40.755306 -97.716495 254 33869ft 367kts
08-Jan-22 14:43 40.731859 -97.847993 254 33868ft 368kts
08-Jan-22 14:44 40.708310 -97.979121 254 33867ft 369kts
08-Jan-22 14:45 40.684618 -98.110137 253 33865ft 366kts
08-Jan-22 14:46 40.660830 -98.240755 253 33864ft 366kts
08-Jan-22 14:47 40.636850 -98.371532 253 33852ft 365kts
08-Jan-22 14:48 40.612921 -98.501153 253 33850ft 364kts
08-Jan-22 14:49 40.588781 -98.631028 253 33857ft 363kts
08-Jan-22 14:50 40.564684 -98.759811 253 33870ft 363kts
08-Jan-22 14:51 40.540465 -98.888386 253 33879ft 361kts
08-Jan-22 14:52 40.516241 -99.016144 253 33888ft 360kts
08-Jan-22 14:53 40.491872 -99.143840 253 33902ft 359kts
08-Jan-22 14:54 40.467511 -99.270664 253 33909ft 358kts
08-Jan-22 14:55 40.443096 -99.396969 253 33908ft 357kts
08-Jan-22 14:56 40.418490 -99.523453 253 33914ft 357kts
08-Jan-22 14:57 40.393816 -99.649490 253 33919ft 357kts
08-Jan-22 14:58 40.368917 -99.775884 253 33923ft 357kts
08-Jan-22 14:59 40.343965 -99.901766 253 33932ft 357kts
08-Jan-22 15:00 40.318881 -100.027534 252 33925ft 356kts
08-Jan-22 15:01 40.293774 -100.152644 252 33920ft 356kts
08-Jan-22 15:02 40.268861 -100.278043 252 33912ft 355kts
08-Jan-22 15:03 40.243320 -100.403011 252 33905ft 355kts
08-Jan-22 15:04 40.217808 -100.526939 252 33900ft 354kts
08-Jan-22 15:05 40.191338 -100.651349 250 33901ft 353kts
08-Jan-22 15:06 40.163355 -100.773535 250 33930ft 351kts
08-Jan-22 15:07 40.135231 -100.896039 250 33978ft 350kts
08-Jan-22 15:08 40.107211 -101.017566 250 33993ft 349kts
08-Jan-22 15:09 40.079872 -101.139592 250 33995ft 349kts
08-Jan-22 15:10 40.052149 -101.260789 250 33995ft 348kts
08-Jan-22 15:11 40.024229 -101.381594 249 33995ft 347kts
08-Jan-22 15:12 39.996123 -101.502384 249 33992ft 348kts
08-Jan-22 15:13 39.967792 -101.623490 249 33991ft 349kts
08-Jan-22 15:14 39.939378 -101.744280 249 33989ft 348kts
08-Jan-22 15:15 39.910850 -101.864927 249 33989ft 347kts
08-Jan-22 15:16 39.882305 -101.985016 249 33989ft 347kts
08-Jan-22 15:17 39.853671 -102.104865 249 33989ft 347kts
08-Jan-22 15:18 39.824871 -102.224787 249 33989ft 348kts
08-Jan-22 15:19 39.795870 -102.344931 249 33999ft 347kts
08-Jan-22 15:20 39.766734 -102.465032 249 33994ft 349kts
08-Jan-22 15:21 39.737442 -102.585145 249 33994ft 349kts
08-Jan-22 15:22 39.707892 -102.705705 249 33994ft 350kts
08-Jan-22 15:23 39.678149 -102.826449 248 33998ft 351kts
08-Jan-22 15:24 39.648329 -102.946895 248 34001ft 352kts
08-Jan-22 15:25 39.618174 -103.068074 248 34005ft 352kts
08-Jan-22 15:26 39.587941 -103.188968 248 34012ft 352kts
08-Jan-22 15:27 39.557598 -103.309697 248 34025ft 352kts
08-Jan-22 15:28 39.527112 -103.430389 248 34032ft 352kts
08-Jan-22 15:29 39.496636 -103.550829 248 34039ft 353kts
08-Jan-22 15:30 39.466121 -103.671524 247 34043ft 352kts
08-Jan-22 15:31 39.435074 -103.791873 247 34045ft 352kts
08-Jan-22 15:32 39.404001 -103.911942 247 34042ft 352kts
08-Jan-22 15:33 39.370808 -104.030651 245 34045ft 352kts
08-Jan-22 15:34 39.336022 -104.149132 245 34045ft 353kts
08-Jan-22 15:35 39.301081 -104.268111 245 34046ft 354kts
08-Jan-22 15:36 39.266416 -104.386935 246 34045ft 354kts
08-Jan-22 15:37 39.231830 -104.506469 246 34053ft 355kts
08-Jan-22 15:38 39.196927 -104.625400 245 34059ft 356kts
08-Jan-22 15:39 39.161499 -104.745284 245 34055ft 357kts
08-Jan-22 15:40 39.126128 -104.864369 246 34045ft 357kts
08-Jan-22 15:41 39.090440 -104.983977 246 34042ft 358kts
08-Jan-22 15:42 39.054604 -105.103541 245 34048ft 358kts
08-Jan-22 15:43 39.018489 -105.223503 245 34064ft 359kts
08-Jan-22 15:44 38.982363 -105.342978 245 34079ft 359kts
08-Jan-22 15:45 38.946033 -105.462591 245 34081ft 359kts
08-Jan-22 15:46 38.909474 -105.582444 245 34089ft 360kts
08-Jan-22 15:47 38.872724 -105.702393 245 34083ft 360kts
08-Jan-22 15:48 38.836003 -105.821729 245 34078ft 360kts
08-Jan-22 15:49 38.798899 -105.941782 245 34080ft 361kts
08-Jan-22 15:50 38.761778 -106.061358 246 34086ft 363kts
08-Jan-22 15:51 38.724298 -106.181600 246 34087ft 363kts
08-Jan-22 15:52 38.686733 -106.301585 246 34101ft 363kts
08-Jan-22 15:53 38.648997 -106.421594 246 34124ft 364kts
08-Jan-22 15:54 38.611187 -106.541325 246 34137ft 363kts
08-Jan-22 15:55 38.573208 -106.661240 246 34129ft 363kts
08-Jan-22 15:56 38.553304 -106.724798 246 34121ft 363kts
08-Jan-22 15:57 38.496978 -106.900457 246 34110ft 364kts
08-Jan-22 15:58 38.458486 -107.019867 246 34110ft 363kts
08-Jan-22 15:59 38.419355 -107.138602 245 34112ft 363kts
08-Jan-22 16:00 38.380383 -107.255603 245 34123ft 363kts
08-Jan-22 16:01 38.340879 -107.373656 246 34140ft 363kts
08-Jan-22 16:02 38.301564 -107.492076 246 34156ft 363kts
08-Jan-22 16:03 38.262256 -107.610400 246 34159ft 362kts
08-Jan-22 16:04 38.222700 -107.728225 246 34160ft 362kts
08-Jan-22 16:05 38.182940 -107.846004 246 34158ft 362kts
08-Jan-22 16:06 38.143127 -107.963438 246 34158ft 362kts
08-Jan-22 16:07 38.103201 -108.080727 246 34156ft 362kts
08-Jan-22 16:08 38.063152 -108.197908 246 34157ft 362kts
08-Jan-22 16:09 38.022888 -108.315251 246 34158ft 363kts
08-Jan-22 16:10 37.982402 -108.432774 246 34160ft 362kts
08-Jan-22 16:11 37.941588 -108.550614 247 34155ft 374kts
08-Jan-22 16:12 37.899215 -108.673811 247 34159ft 382kts
08-Jan-22 16:13 37.856289 -108.796367 247 34173ft 382kts
08-Jan-22 16:14 37.813358 -108.919391 250 34178ft 382kts
08-Jan-22 16:15 37.784723 -109.048480 256 34185ft 381kts
08-Jan-22 16:17 37.757668 -109.178421 256 34193ft 382kts
08-Jan-22 16:18 37.730361 -109.308570 256 34201ft 384kts
08-Jan-22 16:19 37.703497 -109.439241 257 34206ft 385kts
08-Jan-22 16:20 37.676312 -109.569857 256 34208ft 386kts
08-Jan-22 16:21 37.648662 -109.701018 256 34206ft 387kts
08-Jan-22 16:22 37.620723 -109.832568 256 34203ft 387kts
08-Jan-22 16:23 37.592661 -109.963869 256 34198ft 387kts
08-Jan-22 16:24 37.564457 -110.095043 256 34194ft 387kts
08-Jan-22 16:25 37.536034 -110.226461 256 34189ft 388kts
08-Jan-22 16:26 37.507526 -110.357499 256 34184ft 387kts
08-Jan-22 16:27 37.478991 -110.487907 256 34185ft 385kts
08-Jan-22 16:28 37.450355 -110.618016 256 34179ft 385kts
08-Jan-22 16:29 37.421707 -110.747446 256 34169ft 384kts
08-Jan-22 16:30 37.392887 -110.876914 256 34163ft 384kts
08-Jan-22 16:31 37.363994 -111.005972 256 34158ft 383kts
08-Jan-22 16:32 37.335060 -111.134500 256 34154ft 383kts
08-Jan-22 16:33 37.306062 -111.262601 257 34151ft 383kts
08-Jan-22 16:34 37.276899 -111.392069 257 34149ft 383kts
08-Jan-22 16:35 37.247404 -111.520797 256 34154ft 383kts
08-Jan-22 16:36 37.217673 -111.649146 256 34157ft 383kts
08-Jan-22 16:36 37.192672 -111.756060 255 34163ft 383kts
08-Jan-22 16:38 37.152220 -111.904014 254 34173ft 383kts
08-Jan-22 16:39 37.117924 -112.029944 254 34183ft 383kts
08-Jan-22 16:40 37.084014 -112.156581 255 34194ft 383kts
08-Jan-22 16:40 37.055562 -112.261701 254 34204ft 382kts
08-Jan-22 16:41 37.020988 -112.387349 254 34208ft 381kts
08-Jan-22 16:43 36.980877 -112.533539 254 34210ft 381kts
08-Jan-22 16:44 36.946295 -112.658461 254 34209ft 380kts
08-Jan-22 16:44 36.917329 -112.762002 254 34208ft 379kts
08-Jan-22 16:45 36.882433 -112.886560 254 34209ft 379kts
08-Jan-22 16:46 36.847405 -113.010764 254 34213ft 379kts
08-Jan-22 16:47 36.812691 -113.135295 254 34075ft 379kts
08-Jan-22 16:48 36.778311 -113.256523 254 32374ft 365kts
08-Jan-22 16:49 36.744635 -113.374282 254 30647ft 356kts
08-Jan-22 16:50 36.711676 -113.489571 254 28926ft 348kts
08-Jan-22 16:51 36.679995 -113.601785 254 27190ft 341kts
08-Jan-22 16:52 36.648240 -113.712498 254 25445ft 335kts
08-Jan-22 16:53 36.617074 -113.820343 255 23756ft 328kts
08-Jan-22 16:54 36.583231 -113.924979 244 22086ft 327kts
08-Jan-22 16:55 36.529157 -114.015205 237 20424ft 323kts
08-Jan-22 16:56 36.474584 -114.102598 237 18767ft 316kts
08-Jan-22 16:57 36.421419 -114.187759 237 17118ft 308kts
08-Jan-22 16:58 36.369909 -114.269761 236 15676ft 296kts
08-Jan-22 16:59 36.319278 -114.349060 236 14078ft 290kts
08-Jan-22 17:00 36.269580 -114.426669 235 12473ft 284kts
08-Jan-22 17:01 36.220323 -114.502665 234 10849ft 280kts
08-Jan-22 17:02 36.172510 -114.575915 233 9587ft 265kts
08-Jan-22 17:03 36.125881 -114.647238 232 8662ft 276kts
08-Jan-22 17:04 36.078156 -114.720360 235 8063ft 255kts
08-Jan-22 17:05 36.073319 -114.798469 272 7724ft 228kts
08-Jan-22 17:06 36.073832 -114.878400 272 6034ft 221kts
08-Jan-22 17:07 36.073816 -114.951836 272 4910ft 200kts
08-Jan-22 17:08 36.073766 -115.014571 272 3932ft 161kts
08-Jan-22 17:09 36.073674 -115.064333 275 3157ft 141kts
08-Jan-22 17:10 36.073569 -115.113061 276 2424ft 140kts
08-Jan-22 17:11 36.073848 -115.143291 280 2189ft 21kts
08-Jan-22 17:12 36.076130 -115.146545 359 2189ft 15kts
08-Jan-22 17:13 36.080267 -115.148057 335 2189ft 14kts
08-Jan-22 17:14 36.081361 -115.147889 61 2189ft 0kts
08-Jan-22 17:15 36.081361 -115.147889 61 2189ft 0kts
08-Jan-22 17:16 36.081361 -115.147889 61 2189ft 0kts
08-Jan-22 17:17 36.081361 -115.147889 61 2189ft 0kts
08-Jan-22 17:18 36.081361 -115.147889 61 2189ft 0kts
08-Jan-22 17:19 36.081361 -115.147889 61 2189ft 0kts
08-Jan-22 17:20 36.081361 -115.147889 61 2189ft 0kts
08-Jan-22 17:21 36.081361 -115.147889 61 2189ft 0kts
08-Jan-22 17:22 36.081361 -115.147889 61 2189ft 0kts
08-Jan-22 17:23 36.081361 -115.147889 61 2189ft 0kts
08-Jan-22 17:24 36.081361 -115.147889 61 2189ft 0kts
08-Jan-22 17:25 36.081361 -115.147889 61 2189ft 0kts

Navigation Log

Ident Type
Flight plan parsing failed, navigation log unavailable